createdAt,value
2023-05-13T00:02:08.414Z,5.65
2023-05-13T00:08:38.396Z,5.93
2023-05-13T00:11:05.186Z,5.43
2023-05-13T00:13:31.853Z,5.47
2023-05-13T00:15:58.615Z,4.90
2023-05-13T00:18:25.810Z,5.47
2023-05-13T00:20:52.547Z,5.70
2023-05-13T00:23:19.356Z,5.40
2023-05-13T00:25:46.027Z,5.22
2023-05-13T00:28:14.991Z,5.18
2023-05-13T00:30:45.765Z,5.25
2023-05-13T00:33:12.874Z,4.93
2023-05-13T00:35:39.780Z,6.18
2023-05-13T00:38:07.200Z,6.60
2023-05-13T00:40:37.443Z,7.30
2023-05-13T00:43:04.327Z,7.72
2023-05-13T00:45:31.311Z,9.05
2023-05-13T00:47:59.274Z,8.57
2023-05-13T00:50:26.159Z,8.80
2023-05-13T00:52:53.387Z,9.98
2023-05-13T00:55:20.199Z,10.25
2023-05-13T00:57:46.888Z,10.20
2023-05-13T01:00:13.979Z,9.45
2023-05-13T01:03:05.272Z,10.30
2023-05-13T01:05:47.097Z,10.20
2023-05-13T01:08:31.837Z,9.35
2023-05-13T01:11:03.748Z,11.02
2023-05-13T01:13:42.904Z,10.70
2023-05-13T01:16:24.671Z,10.13
2023-05-13T01:18:56.620Z,10.13
2023-05-13T01:21:28.501Z,10.90
2023-05-13T01:23:55.999Z,10.35
2023-05-13T01:26:24.244Z,10.48
2023-05-13T01:28:51.060Z,11.32
2023-05-13T01:31:19.255Z,10.30
2023-05-13T01:33:46.794Z,10.30
2023-05-13T01:36:14.896Z,10.60
2023-05-13T01:38:42.780Z,10.45
2023-05-13T01:41:09.571Z,10.43
2023-05-13T01:43:36.816Z,10.27
2023-05-13T01:46:04.200Z,10.55
2023-05-13T01:48:31.396Z,10.48
2023-05-13T01:50:58.358Z,10.65
2023-05-13T01:53:25.089Z,10.40
2023-05-13T01:55:53.045Z,10.95
2023-05-13T01:58:20.984Z,11.68
2023-05-13T02:00:47.746Z,11.48
2023-05-13T02:03:14.589Z,9.55
2023-05-13T02:05:42.028Z,10.35
2023-05-13T02:08:08.950Z,10.70
2023-05-13T02:10:37.822Z,10.52
2023-05-13T02:13:04.524Z,10.95
2023-05-13T02:15:31.578Z,10.05
2023-05-13T02:17:58.733Z,11.38
2023-05-13T02:20:26.376Z,11.02
2023-05-13T02:22:53.058Z,10.82
2023-05-13T02:25:19.882Z,10.32
2023-05-13T02:27:46.546Z,10.27
2023-05-13T02:30:13.470Z,10.77
2023-05-13T02:32:43.325Z,10.32
2023-05-13T02:35:10.864Z,11.13
2023-05-13T02:37:37.698Z,10.93
2023-05-13T02:40:05.181Z,10.48
2023-05-13T02:42:32.076Z,10.23
2023-05-13T02:44:58.802Z,9.50
2023-05-13T02:47:27.080Z,9.57
2023-05-13T02:49:56.520Z,10.65
2023-05-13T02:52:23.613Z,10.57
2023-05-13T02:54:50.336Z,9.65
2023-05-13T02:57:17.044Z,9.52
2023-05-13T02:59:44.602Z,10.50
2023-05-13T03:02:11.403Z,10.00
2023-05-13T03:04:38.091Z,10.65
2023-05-13T03:07:04.994Z,9.52
2023-05-13T03:09:31.704Z,10.13
2023-05-13T03:11:58.496Z,9.90
2023-05-13T03:14:25.165Z,9.60
2023-05-13T03:16:51.951Z,10.38
2023-05-13T03:19:18.741Z,10.00
2023-05-13T03:21:45.864Z,10.40
2023-05-13T03:24:15.651Z,10.25
2023-05-13T03:26:42.421Z,10.68
2023-05-13T03:29:09.365Z,10.90
2023-05-13T03:31:37.792Z,10.27
2023-05-13T03:34:05.617Z,10.95
2023-05-13T03:36:33.422Z,11.63
2023-05-13T03:39:00.733Z,10.40
2023-05-13T03:41:28.218Z,11.48
2023-05-13T03:43:57.251Z,10.95
2023-05-13T03:46:24.152Z,10.30
2023-05-13T03:48:50.935Z,10.27
2023-05-13T03:51:17.711Z,10.88
2023-05-13T03:53:44.985Z,10.63
2023-05-13T03:56:11.748Z,10.43
2023-05-13T03:58:39.396Z,10.68
2023-05-13T04:01:07.776Z,10.27
2023-05-13T04:03:34.867Z,10.52
2023-05-13T04:06:01.726Z,10.10
2023-05-13T04:08:28.410Z,9.70
2023-05-13T04:10:57.031Z,9.70
2023-05-13T04:13:25.988Z,10.18
2023-05-13T04:15:54.347Z,9.60
2023-05-13T04:18:21.756Z,10.82
2023-05-13T04:20:48.562Z,9.18
2023-05-13T04:23:15.245Z,10.55
2023-05-13T04:25:42.508Z,12.32
2023-05-13T04:28:09.432Z,25.27
2023-05-13T04:30:40.655Z,11.52
2023-05-13T04:33:07.541Z,11.43
2023-05-13T04:35:35.599Z,17.98
2023-05-13T04:38:04.695Z,11.55
2023-05-13T04:40:31.531Z,11.45
2023-05-13T04:43:03.278Z,13.50
2023-05-13T04:45:35.685Z,22.50
2023-05-13T04:48:03.190Z,19.85
2023-05-13T04:50:30.065Z,12.23
2023-05-13T04:52:57.192Z,8.75
2023-05-13T04:55:25.998Z,12.50
2023-05-13T04:57:54.404Z,10.55
2023-05-13T05:00:21.356Z,11.50
2023-05-13T05:02:50.016Z,12.32
2023-05-13T05:05:18.258Z,9.98
2023-05-13T05:07:45.525Z,9.60
2023-05-13T05:10:12.369Z,9.68
2023-05-13T05:12:43.664Z,10.95
2023-05-13T05:15:15.663Z,8.90
2023-05-13T05:17:44.781Z,10.13
2023-05-13T05:20:12.245Z,9.48
2023-05-13T05:22:41.656Z,9.10
2023-05-13T05:25:10.754Z,9.02
2023-05-13T05:27:37.645Z,9.48
2023-05-13T05:30:05.254Z,9.60
2023-05-13T05:32:34.331Z,8.85
2023-05-13T05:35:03.862Z,8.60
2023-05-13T05:37:31.940Z,9.18
2023-05-13T05:39:58.656Z,8.15
2023-05-13T05:42:26.396Z,9.02
2023-05-13T05:44:53.215Z,10.10
2023-05-13T05:47:19.950Z,9.75
2023-05-13T05:49:46.680Z,8.50
2023-05-13T05:52:13.591Z,9.80
2023-05-13T05:54:40.519Z,9.65
2023-05-13T05:57:07.325Z,10.02
2023-05-13T05:59:34.021Z,9.35
2023-05-13T06:02:01.407Z,9.35
2023-05-13T06:04:28.235Z,9.27
2023-05-13T06:06:55.013Z,8.90
2023-05-13T06:09:22.267Z,8.98
2023-05-13T06:11:49.235Z,9.75
2023-05-13T06:14:17.054Z,9.43
2023-05-13T06:16:43.690Z,9.52
2023-05-13T06:19:10.535Z,9.23
2023-05-13T06:21:37.259Z,8.60
2023-05-13T06:24:04.211Z,8.82
2023-05-13T06:26:31.759Z,8.13
2023-05-13T06:28:58.419Z,8.82
2023-05-13T06:31:27.093Z,8.20
2023-05-13T06:33:53.783Z,7.55
2023-05-13T06:36:20.536Z,7.43
2023-05-13T06:38:47.251Z,7.10
2023-05-13T06:41:14.164Z,7.97
2023-05-13T06:43:41.297Z,8.18
2023-05-13T06:46:21.787Z,7.95
2023-05-13T06:48:52.155Z,7.82
2023-05-13T06:51:18.967Z,7.60
2023-05-13T06:53:46.242Z,8.05
2023-05-13T06:56:12.946Z,7.75
2023-05-13T06:58:39.734Z,7.85
2023-05-13T07:01:06.392Z,8.82
2023-05-13T07:03:33.072Z,7.55
2023-05-13T07:05:59.817Z,7.20
2023-05-13T07:08:26.502Z,7.53
2023-05-13T07:10:53.142Z,8.20
2023-05-13T07:13:20.575Z,8.80
2023-05-13T07:15:47.296Z,9.07
2023-05-13T07:18:14.318Z,9.00
2023-05-13T07:20:41.011Z,8.23
2023-05-13T07:23:07.808Z,7.90
2023-05-13T07:25:34.552Z,7.70
2023-05-13T07:28:01.486Z,7.68
2023-05-13T07:30:28.279Z,8.05
2023-05-13T07:32:55.041Z,9.88
2023-05-13T07:35:21.876Z,7.60
2023-05-13T07:37:48.700Z,7.13
2023-05-13T07:40:15.753Z,7.18
2023-05-13T07:42:42.414Z,6.85
2023-05-13T07:45:09.542Z,7.30
2023-05-13T07:47:36.325Z,7.05
2023-05-13T07:50:03.423Z,7.25
2023-05-13T07:52:30.299Z,7.68
2023-05-13T07:54:56.978Z,7.88
2023-05-13T07:57:23.815Z,7.22
2023-05-13T07:59:50.556Z,6.53
2023-05-13T08:02:17.378Z,7.07
2023-05-13T08:04:44.133Z,6.80
2023-05-13T08:07:11.681Z,8.20
2023-05-13T08:09:38.600Z,7.90
2023-05-13T08:12:05.721Z,8.07
2023-05-13T08:14:32.509Z,8.55
2023-05-13T08:16:59.422Z,8.40
2023-05-13T08:19:26.242Z,7.70
2023-05-13T08:21:52.925Z,7.38
2023-05-13T08:24:19.612Z,7.90
2023-05-13T08:26:47.133Z,8.90
2023-05-13T08:29:15.606Z,8.73
2023-05-13T08:31:42.517Z,8.48
2023-05-13T08:34:09.283Z,9.13
2023-05-13T08:36:35.957Z,7.50
2023-05-13T08:39:02.660Z,7.25
2023-05-13T08:41:31.731Z,9.10
2023-05-13T08:44:00.406Z,9.90
2023-05-13T08:46:28.902Z,8.68
2023-05-13T08:48:56.706Z,8.15
2023-05-13T08:51:23.921Z,8.20
2023-05-13T08:53:52.078Z,7.38
2023-05-13T08:56:18.870Z,8.65
2023-05-13T08:58:45.904Z,8.38
2023-05-13T09:01:13.005Z,8.77
2023-05-13T09:03:57.524Z,8.88
2023-05-13T09:06:24.214Z,8.00
2023-05-13T09:08:51.324Z,8.18
2023-05-13T09:11:18.063Z,7.88
2023-05-13T09:13:44.788Z,7.20
2023-05-13T09:16:14.082Z,7.00
2023-05-13T09:18:42.133Z,6.25
2023-05-13T09:21:29.305Z,6.70
2023-05-13T09:24:02.580Z,6.70
2023-05-13T09:26:30.272Z,5.85
2023-05-13T09:29:22.893Z,7.75
2023-05-13T09:31:55.087Z,9.45
2023-05-13T09:34:39.986Z,10.07
2023-05-13T09:37:08.094Z,10.05
2023-05-13T09:39:41.115Z,16.10
2023-05-13T09:42:20.037Z,14.63
2023-05-13T09:44:47.355Z,10.05
2023-05-13T09:47:14.945Z,12.82
2023-05-13T09:49:43.448Z,36.33
2023-05-13T09:52:11.660Z,10.98
2023-05-13T09:54:38.713Z,51.17
2023-05-13T09:57:06.007Z,35.35
2023-05-13T09:59:34.097Z,34.67
2023-05-13T10:02:03.676Z,40.00
2023-05-13T10:04:31.086Z,50.28
2023-05-13T10:06:59.046Z,17.80
2023-05-13T10:09:28.888Z,15.75
2023-05-13T10:11:57.214Z,14.10
2023-05-13T10:14:24.529Z,15.02
2023-05-13T10:16:52.106Z,16.42
2023-05-13T10:19:19.720Z,18.92
2023-05-13T10:21:47.650Z,12.52
2023-05-13T10:24:14.733Z,28.30
2023-05-13T10:26:43.654Z,15.43
2023-05-13T10:29:11.189Z,14.50
2023-05-13T10:31:38.597Z,13.88
2023-05-13T10:34:05.309Z,8.63
2023-05-13T10:36:37.566Z,7.10
2023-05-13T10:39:07.434Z,6.80
2023-05-13T10:41:55.392Z,6.70
2023-05-13T10:44:23.591Z,7.70
2023-05-13T10:46:50.830Z,7.85
2023-05-13T10:49:17.562Z,7.68
2023-05-13T10:51:49.259Z,7.68
2023-05-13T10:54:24.760Z,7.18
2023-05-13T10:56:58.597Z,8.07
2023-05-13T10:59:25.635Z,7.20
2023-05-13T11:01:53.340Z,6.93
2023-05-13T11:04:21.414Z,7.68
2023-05-13T11:06:50.629Z,7.60
2023-05-13T11:09:23.227Z,7.18
2023-05-13T11:14:22.737Z,7.35
2023-05-13T11:17:09.984Z,7.65
2023-05-13T11:19:39.072Z,7.97
2023-05-13T11:22:12.919Z,7.70
2023-05-13T11:24:40.422Z,8.13
2023-05-13T11:27:20.764Z,7.65
2023-05-13T11:29:55.526Z,8.00
2023-05-13T11:32:55.906Z,8.23
2023-05-13T11:35:30.702Z,8.07
2023-05-13T11:38:00.316Z,10.63
2023-05-13T11:40:28.542Z,8.95
2023-05-13T11:42:55.449Z,8.93
2023-05-13T11:45:24.181Z,8.40
2023-05-13T11:47:52.413Z,7.72
2023-05-13T11:50:27.220Z,7.35
2023-05-13T11:52:56.140Z,7.25
2023-05-13T11:55:27.241Z,8.35
2023-05-13T11:57:54.378Z,8.40
2023-05-13T12:00:29.579Z,7.53
2023-05-13T12:02:56.539Z,8.38
2023-05-13T12:05:24.098Z,7.82
2023-05-13T12:07:51.345Z,8.35
2023-05-13T12:10:18.191Z,8.10
2023-05-13T12:12:46.035Z,8.40
2023-05-13T12:15:15.902Z,8.32
2023-05-13T12:17:43.285Z,9.30
2023-05-13T12:20:11.550Z,9.63
2023-05-13T12:22:49.936Z,9.60
2023-05-13T12:25:35.502Z,9.98
2023-05-13T12:28:09.062Z,8.95
2023-05-13T12:30:40.716Z,8.48
2023-05-13T12:33:40.547Z,8.90
2023-05-13T12:36:35.861Z,8.45
2023-05-13T12:39:05.377Z,8.50
2023-05-13T12:41:35.252Z,9.13
2023-05-13T12:44:04.537Z,8.77
2023-05-13T12:46:31.580Z,8.63
2023-05-13T12:49:00.687Z,9.15
2023-05-13T12:51:27.873Z,9.77
2023-05-13T12:53:54.717Z,9.55
2023-05-13T12:56:23.111Z,8.95
2023-05-13T12:58:55.987Z,9.18
2023-05-13T13:01:23.133Z,8.90
2023-05-13T13:03:50.015Z,9.57
2023-05-13T13:06:17.736Z,7.90
2023-05-13T13:08:44.545Z,8.82
2023-05-13T13:11:14.730Z,8.63
2023-05-13T13:13:41.707Z,8.90
2023-05-13T13:16:09.205Z,10.07
2023-05-13T13:18:36.231Z,9.90
2023-05-13T13:21:03.119Z,8.05
2023-05-13T13:23:29.872Z,9.25
2023-05-13T13:25:58.956Z,8.93
2023-05-13T13:28:26.368Z,8.77
2023-05-13T13:30:53.679Z,9.38
2023-05-13T13:33:20.967Z,8.52
2023-05-13T13:35:49.036Z,8.60
2023-05-13T13:38:15.738Z,8.98
2023-05-13T13:40:42.430Z,9.25
2023-05-13T13:43:09.296Z,9.45
2023-05-13T13:45:36.593Z,8.68
2023-05-13T13:48:03.627Z,10.23
2023-05-13T13:50:30.569Z,8.88
2023-05-13T13:52:57.227Z,8.63
2023-05-13T13:55:24.294Z,8.55
2023-05-13T13:57:51.989Z,8.68
2023-05-13T14:00:19.022Z,8.68
2023-05-13T14:02:45.889Z,8.10
2023-05-13T14:05:13.522Z,9.02
2023-05-13T14:07:40.559Z,8.82
2023-05-13T14:10:08.246Z,9.90
2023-05-13T14:12:37.693Z,11.80
2023-05-13T14:15:04.893Z,9.73
2023-05-13T14:17:32.680Z,9.70
2023-05-13T14:19:59.399Z,9.38
2023-05-13T14:22:26.161Z,8.98
2023-05-13T14:24:53.026Z,9.15
2023-05-13T14:27:20.718Z,8.38
2023-05-13T14:29:47.858Z,8.55
2023-05-13T14:32:14.558Z,8.38
2023-05-13T14:34:41.347Z,7.97
2023-05-13T14:37:08.312Z,7.45
2023-05-13T14:39:35.184Z,7.20
2023-05-13T14:42:01.940Z,8.27
2023-05-13T14:44:28.608Z,8.20
2023-05-13T14:46:56.025Z,9.18
2023-05-13T14:49:22.752Z,8.45
2023-05-13T14:51:49.455Z,7.50
2023-05-13T14:54:17.579Z,11.43
2023-05-13T14:56:44.499Z,16.60
2023-05-13T14:59:11.615Z,8.25
2023-05-13T15:01:38.707Z,9.20
2023-05-13T15:04:05.932Z,6.90
2023-05-13T15:06:32.978Z,7.05
2023-05-13T15:08:59.757Z,7.60
2023-05-13T15:11:28.052Z,5.53
2023-05-13T15:13:55.321Z,5.70
2023-05-13T15:16:22.375Z,5.38
2023-05-13T15:18:50.276Z,4.85
2023-05-13T15:21:17.690Z,5.63
2023-05-13T15:23:44.628Z,5.45
2023-05-13T15:26:11.463Z,4.93
2023-05-13T15:28:38.200Z,5.78
2023-05-13T15:31:05.762Z,5.50
2023-05-13T15:33:32.663Z,5.43
2023-05-13T15:36:00.097Z,4.25
2023-05-13T15:38:27.972Z,8.35
2023-05-13T15:40:54.767Z,7.45
2023-05-13T15:43:21.527Z,7.38
2023-05-13T15:45:49.753Z,6.13
2023-05-13T15:48:17.272Z,5.65
2023-05-13T15:50:44.046Z,5.32
2023-05-13T15:53:10.793Z,6.40
2023-05-13T15:55:39.358Z,5.53
2023-05-13T15:58:06.878Z,6.90
2023-05-13T16:00:33.844Z,6.05
2023-05-13T16:03:00.770Z,5.93
2023-05-13T16:05:27.540Z,5.72
2023-05-13T16:07:54.352Z,6.38
2023-05-13T16:10:21.192Z,7.53
2023-05-13T16:12:48.028Z,7.40
2023-05-13T16:15:14.757Z,7.72
2023-05-13T16:17:41.461Z,7.07
2023-05-13T16:20:10.855Z,7.70
2023-05-13T16:22:39.023Z,7.40
2023-05-13T16:25:07.645Z,6.50
2023-05-13T16:27:35.761Z,8.13
2023-05-13T16:30:04.409Z,6.63
2023-05-13T16:32:31.201Z,7.25
2023-05-13T16:34:58.059Z,7.60
2023-05-13T16:37:24.935Z,7.82
2023-05-13T16:39:51.621Z,7.53
2023-05-13T16:42:19.628Z,6.20
2023-05-13T16:44:47.316Z,7.07
2023-05-13T16:47:14.382Z,6.78
2023-05-13T16:49:41.113Z,6.25
2023-05-13T16:52:07.919Z,6.22
2023-05-13T16:54:34.594Z,5.60
2023-05-13T16:57:01.311Z,6.45
2023-05-13T16:59:28.301Z,8.57
2023-05-13T17:01:55.818Z,8.32
2023-05-13T17:04:22.824Z,7.90
2023-05-13T17:06:49.657Z,6.55
2023-05-13T17:09:16.394Z,6.05
2023-05-13T17:11:43.155Z,5.93
2023-05-13T17:14:10.117Z,6.18
2023-05-13T17:16:37.109Z,5.75
2023-05-13T17:19:03.971Z,5.78
2023-05-13T17:21:30.786Z,5.50
2023-05-13T17:23:57.547Z,5.38
2023-05-13T17:26:24.204Z,4.97
2023-05-13T17:28:51.281Z,5.20
2023-05-13T17:31:18.250Z,5.15
2023-05-13T17:33:45.068Z,5.20
2023-05-13T17:36:11.790Z,5.00
2023-05-13T17:38:38.487Z,5.38
2023-05-13T17:41:05.305Z,6.32
2023-05-13T17:43:32.058Z,7.03
2023-05-13T17:45:58.781Z,9.63
2023-05-13T17:48:26.840Z,7.63
2023-05-13T17:50:53.867Z,6.28
2023-05-13T17:53:20.823Z,4.45
2023-05-13T17:55:50.664Z,4.53
2023-05-13T17:58:17.428Z,4.35
2023-05-13T18:00:44.099Z,3.90
2023-05-13T18:03:10.905Z,3.58
2023-05-13T18:05:37.766Z,2.70
2023-05-13T18:08:04.678Z,2.70
2023-05-13T18:10:31.388Z,3.00
2023-05-13T18:12:58.083Z,2.67
2023-05-13T18:15:24.834Z,2.95
2023-05-13T18:17:51.560Z,2.30
2023-05-13T18:20:18.520Z,2.45
2023-05-13T18:22:45.514Z,2.40
2023-05-13T18:25:12.237Z,4.20
2023-05-13T18:27:39.143Z,3.65
2023-05-13T18:30:07.211Z,3.38
2023-05-13T18:32:33.959Z,3.30
2023-05-13T18:35:00.698Z,3.17
2023-05-13T18:37:27.433Z,3.15
2023-05-13T18:39:54.135Z,3.42
2023-05-13T18:42:21.229Z,4.50
2023-05-13T18:44:47.871Z,4.57
2023-05-13T18:47:14.552Z,5.10
2023-05-13T18:49:41.246Z,5.68
2023-05-13T18:52:07.986Z,6.60
2023-05-13T18:54:35.277Z,7.18
2023-05-13T18:57:02.103Z,7.00
2023-05-13T18:59:29.059Z,6.72
2023-05-13T19:01:56.035Z,7.05
2023-05-13T19:04:23.185Z,7.10
2023-05-13T19:06:50.186Z,6.38
2023-05-13T19:09:16.900Z,6.88
2023-05-13T19:11:44.217Z,6.40
2023-05-13T19:14:10.878Z,6.53
2023-05-13T19:16:37.668Z,7.07
2023-05-13T19:19:04.680Z,7.55
2023-05-13T19:21:31.615Z,7.45
2023-05-13T19:23:58.641Z,6.50
2023-05-13T19:26:25.493Z,6.30
2023-05-13T19:28:52.509Z,6.20
2023-05-13T19:31:19.281Z,6.05
2023-05-13T19:33:46.487Z,6.03
2023-05-13T19:36:13.354Z,6.68
2023-05-13T19:38:40.083Z,5.97
2023-05-13T19:41:06.819Z,6.43
2023-05-13T19:43:33.503Z,6.32
2023-05-13T19:46:00.324Z,5.85
2023-05-13T19:48:29.126Z,5.53
2023-05-13T19:50:57.825Z,6.63
2023-05-13T19:53:24.705Z,6.88
2023-05-13T19:55:51.424Z,6.40
2023-05-13T19:58:18.176Z,6.25
2023-05-13T20:00:45.078Z,5.65
2023-05-13T20:03:11.956Z,5.53
2023-05-13T20:05:41.205Z,6.07
2023-05-13T20:08:08.084Z,5.50
2023-05-13T20:10:37.767Z,5.57
2023-05-13T20:13:04.745Z,5.53
2023-05-13T20:15:31.894Z,6.63
2023-05-13T20:17:58.654Z,8.75
2023-05-13T20:20:25.595Z,7.03
2023-05-13T20:22:52.421Z,7.65
2023-05-13T20:25:19.353Z,8.15
2023-05-13T20:27:46.047Z,8.38
2023-05-13T20:30:13.301Z,8.02
2023-05-13T20:32:40.185Z,7.22
2023-05-13T20:35:08.578Z,7.10
2023-05-13T20:37:35.534Z,6.90
2023-05-13T20:40:02.425Z,7.18
2023-05-13T20:42:29.157Z,7.00
2023-05-13T20:44:55.923Z,7.00
2023-05-13T20:47:22.732Z,7.55
2023-05-13T20:49:49.481Z,7.40
2023-05-13T20:52:16.709Z,7.95
2023-05-13T20:54:43.461Z,9.02
2023-05-13T20:57:10.134Z,8.60
2023-05-13T20:59:37.296Z,8.25
2023-05-13T21:02:04.196Z,8.43
2023-05-13T21:04:31.141Z,8.00
2023-05-13T21:06:57.912Z,7.70
2023-05-13T21:09:24.606Z,8.30
2023-05-13T21:11:51.271Z,7.93
2023-05-13T21:14:17.945Z,8.45
2023-05-13T21:16:44.690Z,8.63
2023-05-13T21:19:22.062Z,8.07
2023-05-13T21:21:48.932Z,8.30
2023-05-13T21:24:19.330Z,8.68
2023-05-13T21:26:46.729Z,7.65
2023-05-13T21:29:13.444Z,8.95
2023-05-13T21:31:40.349Z,8.93
2023-05-13T21:34:07.163Z,9.55
2023-05-13T21:36:34.025Z,9.40
2023-05-13T21:39:00.888Z,10.02
2023-05-13T21:41:27.631Z,9.73
2023-05-13T21:43:54.369Z,9.52
2023-05-13T21:46:21.020Z,9.88
2023-05-13T21:48:48.146Z,9.48
2023-05-13T21:51:14.924Z,10.38
2023-05-13T21:53:42.958Z,9.55
2023-05-13T21:56:09.815Z,9.32
2023-05-13T21:58:36.577Z,9.90
2023-05-13T22:01:03.296Z,9.73
2023-05-13T22:03:30.173Z,9.57
2023-05-13T22:05:56.989Z,10.55
2023-05-13T22:08:23.817Z,10.70
2023-05-13T22:10:50.578Z,10.57
2023-05-13T22:13:17.330Z,9.95
2023-05-13T22:15:44.111Z,9.65
2023-05-13T22:18:11.081Z,9.25
2023-05-13T22:20:37.851Z,9.00
2023-05-13T22:23:04.498Z,10.07
2023-05-13T22:25:31.305Z,9.95
2023-05-13T22:27:58.111Z,8.95
2023-05-13T22:30:24.991Z,9.65
2023-05-13T22:32:52.146Z,9.77
2023-05-13T22:35:18.938Z,8.73
2023-05-13T22:37:45.682Z,9.95
2023-05-13T22:40:12.961Z,11.43
2023-05-13T22:42:39.635Z,10.38
2023-05-13T22:45:06.831Z,10.70
2023-05-13T22:47:35.797Z,10.98
2023-05-13T22:50:04.130Z,10.38
2023-05-13T22:52:30.909Z,9.88
2023-05-13T22:54:57.607Z,9.75
2023-05-13T22:57:24.330Z,10.48
2023-05-13T22:59:51.025Z,10.07
2023-05-13T23:02:17.743Z,9.98
2023-05-13T23:04:44.443Z,10.45
2023-05-13T23:07:11.167Z,10.10
2023-05-13T23:09:37.833Z,9.75
2023-05-13T23:12:04.872Z,9.73
2023-05-13T23:14:31.824Z,10.90
2023-05-13T23:16:58.536Z,10.30
2023-05-13T23:19:25.843Z,10.23
2023-05-13T23:21:52.670Z,10.55
2023-05-13T23:24:19.445Z,11.23
2023-05-13T23:26:47.521Z,10.90
2023-05-13T23:29:14.374Z,10.82
2023-05-13T23:31:41.151Z,10.25
2023-05-13T23:34:08.200Z,10.30
2023-05-13T23:36:35.004Z,10.80
2023-05-13T23:39:01.688Z,9.23
2023-05-13T23:41:28.796Z,8.88
2023-05-13T23:43:55.784Z,8.20
2023-05-13T23:46:22.592Z,8.13
2023-05-13T23:48:49.341Z,8.07
2023-05-13T23:51:16.041Z,8.10
2023-05-13T23:53:42.866Z,8.10
2023-05-13T23:56:09.575Z,7.70
2023-05-13T23:58:36.304Z,6.60
